Time;durP1;ratioP1;P1;durP2;ratioP2;P2;SDS_P1;SDS_P2;PMS_P1;PMS_P2;Temp;Humidity;BMP_temperature;BMP_pressure;BME280_temperature;BME280_humidity;BME280_pressure;Samples;Min_cycle;Max_cycle;Signal;HPM_P1;HPM_P2
2020/06/21 00:01:28;;;;;;;-1.701412E+38;-2.262441E-39;;;;;;;21.91;55.35352;967.4252;;;;
2020/06/21 00:03:54;;;;;;;-1.701412E+38;-2.262441E-39;;;;;;;21.9;55.40137;967.4207;;;;
2020/06/21 00:06:19;;;;;;;-1.701412E+38;-2.262441E-39;;;;;;;21.88;55.44629;967.3758;;;;
2020/06/21 00:08:44;;;;;;;-1.701412E+38;-2.262441E-39;;;;;;;21.9;55.4248;967.3447;;;;
2020/06/21 00:11:09;;;;;;;-1.701412E+38;-2.262441E-39;;;;;;;21.89;55.44727;967.2869;;;;
2020/06/21 00:13:34;;;;;;;-1.701412E+38;-2.262441E-39;;;;;;;21.88;55.49414;967.3461;;;;
2020/06/21 00:15:59;;;;;;;-1.701412E+38;-2.262441E-39;;;;;;;21.86;55.52832;967.3033;;;;
2020/06/21 00:18:24;;;;;;;-1.701412E+38;-2.262441E-39;;;;;;;21.85;55.58691;967.3191;;;;
2020/06/21 00:20:50;;;;;;;-1.701412E+38;-2.262441E-39;;;;;;;21.85;55.58594;967.3172;;;;
2020/06/21 00:23:15;;;;;;;-1.701412E+38;-2.262441E-39;;;;;;;21.87;55.68457;967.3106;;;;
2020/06/21 00:25:42;;;;;;;-1.701412E+38;-2.262441E-39;;;;;;;21.85;56.00488;967.3281;;;;
2020/06/21 00:28:06;;;;;;;-1.701412E+38;-2.262441E-39;;;;;;;21.84;56.21973;967.3873;;;;
2020/06/21 00:30:33;;;;;;;-1.701412E+38;-2.262441E-39;;;;;;;21.84;55.90918;967.3758;;;;
2020/06/21 00:32:57;;;;;;;-1.701412E+38;-2.262441E-39;;;;;;;21.84;55.95508;967.3961;;;;
2020/06/21 00:35:22;;;;;;;-1.701412E+38;-2.262441E-39;;;;;;;21.83;55.9541;967.3937;;;;
2020/06/21 00:37:48;;;;;;;-1.701412E+38;-2.262441E-39;;;;;;;21.81;56;967.353;;;;
2020/06/21 00:40:13;;;;;;;-1.701412E+38;-2.262441E-39;;;;;;;21.8;55.87891;967.4001;;;;
2020/06/21 00:42:38;;;;;;;-1.701412E+38;-2.262441E-39;;;;;;;21.8;56.15332;967.4319;;;;
2020/06/21 00:45:03;;;;;;;-1.701412E+38;-2.262441E-39;;;;;;;21.8;56.10645;967.4034;;;;
2020/06/21 00:47:28;;;;;;;-1.701412E+38;-2.262441E-39;;;;;;;21.8;56.1416;967.405;;;;
2020/06/21 00:49:53;;;;;;;-1.701412E+38;-2.262441E-39;;;;;;;21.79;56.17578;967.3557;;;;
2020/06/21 00:52:18;;;;;;;-1.701412E+38;-2.262441E-39;;;;;;;21.78;56.16309;967.3592;;;;
2020/06/21 00:54:44;;;;;;;-1.701412E+38;-2.262441E-39;;;;;;;21.77;56.30566;967.325;;;;
2020/06/21 00:57:09;;;;;;;-1.701412E+38;-2.262441E-39;;;;;;;21.79;55.98438;967.3616;;;;
2020/06/21 00:59:34;;;;;;;-1.701412E+38;-2.262441E-39;;;;;;;21.77;56.25879;967.3388;;;;
2020/06/21 01:01:59;;;;;;;-1.701412E+38;-2.262441E-39;;;;;;;21.76;56.20898;967.3354;;;;
2020/06/21 01:04:24;;;;;;;-1.701412E+38;-2.262441E-39;;;;;;;21.76;56.10059;967.3223;;;;
2020/06/21 01:06:49;;;;;;;-1.701412E+38;-2.262441E-39;;;;;;;21.74;56.23047;967.3567;;;;
2020/06/21 01:09:15;;;;;;;-1.701412E+38;-2.262441E-39;;;;;;;21.75;56.38672;967.3106;;;;
2020/06/21 01:11:40;;;;;;;-1.701412E+38;-2.262441E-39;;;;;;;21.75;56.3877;967.2584;;;;
2020/06/21 01:14:06;;;;;;;-1.701412E+38;-2.262441E-39;;;;;;;21.75;56.33984;967.2486;;;;
2020/06/21 01:16:31;;;;;;;-1.701412E+38;-2.262441E-39;;;;;;;21.74;56.5166;967.1757;;;;
2020/06/21 01:18:56;;;;;;;-1.701412E+38;-2.262441E-39;;;;;;;21.73;56.37305;967.1973;;;;
2020/06/21 01:21:21;;;;;;;-1.701412E+38;-2.262441E-39;;;;;;;21.73;56.45605;967.1605;;;;
2020/06/21 01:23:46;;;;;;;-1.701412E+38;-2.262441E-39;;;;;;;21.74;56.52832;967.1708;;;;
2020/06/21 01:26:13;;;;;;;-1.701412E+38;-2.262441E-39;;;;;;;21.73;56.57617;967.1258;;;;
2020/06/21 01:28:38;;;;;;;-1.701412E+38;-2.262441E-39;;;;;;;21.73;56.56348;967.0889;;;;
2020/06/21 01:31:03;;;;;;;-1.701412E+38;-2.262441E-39;;;;;;;21.73;56.5166;967.0681;;;;
2020/06/21 01:33:28;;;;;;;-1.701412E+38;-2.262441E-39;;;;;;;21.72;56.41992;967.0003;;;;
2020/06/21 01:35:53;;;;;;;-1.701412E+38;-2.262441E-39;;;;;;;21.72;56.51367;967.0189;;;;
2020/06/21 01:38:18;;;;;;;-1.701412E+38;-2.262441E-39;;;;;;;21.71;56.54883;966.9963;;;;
2020/06/21 01:40:44;;;;;;;-1.701412E+38;-2.262441E-39;;;;;;;21.69;56.60547;967.0236;;;;
2020/06/21 01:43:09;;;;;;;-1.701412E+38;-2.262441E-39;;;;;;;21.7;56.72754;967.0342;;;;
2020/06/21 01:45:34;;;;;;;-1.701412E+38;-2.262441E-39;;;;;;;21.69;56.69043;967.0142;;;;
2020/06/21 01:47:59;;;;;;;-1.701412E+38;-2.262441E-39;;;;;;;21.68;56.73633;966.9702;;;;
2020/06/21 01:50:24;;;;;;;-1.701412E+38;-2.262441E-39;;;;;;;21.69;56.74902;966.9559;;;;
2020/06/21 01:52:49;;;;;;;-1.701412E+38;-2.262441E-39;;;;;;;21.69;56.79785;966.9747;;;;
2020/06/21 01:55:14;;;;;;;-1.701412E+38;-2.262441E-39;;;;;;;21.68;56.74902;966.9695;;;;
2020/06/21 01:57:39;;;;;;;-1.701412E+38;-2.262441E-39;;;;;;;21.68;56.78418;966.9867;;;;
2020/06/21 02:00:05;;;;;;;-1.701412E+38;-2.262441E-39;;;;;;;21.68;56.85645;966.9646;;;;
2020/06/21 02:02:30;;;;;;;-1.701412E+38;-2.262441E-39;;;;;;;21.68;56.86816;966.9406;;;;
2020/06/21 02:04:55;;;;;;;-1.701412E+38;-2.262441E-39;;;;;;;21.67;56.90332;966.9174;;;;
2020/06/21 02:07:20;;;;;;;-1.701412E+38;-2.262441E-39;;;;;;;21.66;56.96191;966.8816;;;;
2020/06/21 02:09:45;;;;;;;-1.701412E+38;-2.262441E-39;;;;;;;21.66;56.96191;966.8602;;;;
2020/06/21 02:12:10;;;;;;;-1.701412E+38;-2.262441E-39;;;;;;;21.67;56.90332;966.8422;;;;
2020/06/21 02:14:35;;;;;;;-1.701412E+38;-2.262441E-39;;;;;;;21.67;56.9502;966.869;;;;
2020/06/21 02:17:00;;;;;;;-1.701412E+38;-2.262441E-39;;;;;;;21.66;57.00879;966.8414;;;;
2020/06/21 02:19:25;;;;;;;-1.701412E+38;-2.262441E-39;;;;;;;21.65;57.02051;966.8314;;;;
2020/06/21 02:21:50;;;;;;;-1.701412E+38;-2.262441E-39;;;;;;;21.65;57.02051;966.7803;;;;
2020/06/21 02:24:16;;;;;;;-1.701412E+38;-2.262441E-39;;;;;;;21.66;57.02051;966.8022;;;;
2020/06/21 02:26:41;;;;;;;-1.701412E+38;-2.262441E-39;;;;;;;21.66;57.08008;966.8013;;;;
2020/06/21 02:29:06;;;;;;;-1.701412E+38;-2.262441E-39;;;;;;;21.65;57.13867;966.759;;;;
2020/06/21 02:31:31;;;;;;;-1.701412E+38;-2.262441E-39;;;;;;;21.64;57.05371;966.7621;;;;
2020/06/21 02:33:57;;;;;;;-1.701412E+38;-2.262441E-39;;;;;;;21.64;57.15039;966.7809;;;;
2020/06/21 02:36:22;;;;;;;-1.701412E+38;-2.262441E-39;;;;;;;21.64;57.15039;966.7742;;;;
2020/06/21 02:38:47;;;;;;;-1.701412E+38;-2.262441E-39;;;;;;;21.63;57.17285;966.7917;;;;
2020/06/21 02:41:12;;;;;;;-1.701412E+38;-2.262441E-39;;;;;;;21.64;57.1377;966.7533;;;;
2020/06/21 02:43:37;;;;;;;-1.701412E+38;-2.262441E-39;;;;;;;21.63;57.20801;966.7218;;;;
2020/06/21 02:46:03;;;;;;;-1.701412E+38;-2.262441E-39;;;;;;;21.63;57.20801;966.7378;;;;
2020/06/21 02:48:28;;;;;;;-1.701412E+38;-2.262441E-39;;;;;;;21.62;57.23242;966.7272;;;;
2020/06/21 02:50:53;;;;;;;-1.701412E+38;-2.262441E-39;;;;;;;21.63;57.25586;966.7592;;;;
2020/06/21 02:53:18;;;;;;;-1.701412E+38;-2.262441E-39;;;;;;;21.62;57.2666;966.7508;;;;
2020/06/21 02:55:43;;;;;;;-1.701412E+38;-2.262441E-39;;;;;;;21.6;57.30078;966.7415;;;;
2020/06/21 02:58:08;;;;;;;-1.701412E+38;-2.262441E-39;;;;;;;21.6;57.30078;966.748;;;;
2020/06/21 03:00:33;;;;;;;-1.701412E+38;-2.262441E-39;;;;;;;21.6;57.36035;966.7463;;;;
2020/06/21 03:02:59;;;;;;;-1.701412E+38;-2.262441E-39;;;;;;;21.61;57.31348;966.7477;;;;
2020/06/21 03:05:24;;;;;;;-1.701412E+38;-2.262441E-39;;;;;;;21.59;57.38379;966.7885;;;;
2020/06/21 03:07:49;;;;;;;-1.701412E+38;-2.262441E-39;;;;;;;21.59;57.81445;966.7853;;;;
2020/06/21 03:10:14;;;;;;;-1.701412E+38;-2.262441E-39;;;;;;;21.58;57.77637;966.7485;;;;
2020/06/21 03:12:39;;;;;;;-1.701412E+38;-2.262441E-39;;;;;;;21.59;57.66992;966.7774;;;;
2020/06/21 03:15:04;;;;;;;-1.701412E+38;-2.262441E-39;;;;;;;21.59;57.59863;966.7488;;;;
2020/06/21 03:17:29;;;;;;;-1.701412E+38;-2.262441E-39;;;;;;;21.59;57.59863;966.7356;;;;
2020/06/21 03:19:54;;;;;;;-1.701412E+38;-2.262441E-39;;;;;;;21.58;57.65625;966.8413;;;;
2020/06/21 03:22:20;;;;;;;-1.701412E+38;-2.262441E-39;;;;;;;21.58;57.66895;966.8237;;;;
2020/06/21 03:24:45;;;;;;;-1.701412E+38;-2.262441E-39;;;;;;;21.57;57.73926;966.7752;;;;
2020/06/21 03:27:10;;;;;;;-1.701412E+38;-2.262441E-39;;;;;;;21.57;57.72754;966.7933;;;;
2020/06/21 03:29:35;;;;;;;-1.701412E+38;-2.262441E-39;;;;;;;21.55;57.77148;966.807;;;;
2020/06/21 03:32:00;;;;;;;-1.701412E+38;-2.262441E-39;;;;;;;21.55;57.74902;966.8273;;;;
2020/06/21 03:34:25;;;;;;;-1.701412E+38;-2.262441E-39;;;;;;;21.55;57.7959;966.7877;;;;
2020/06/21 03:36:50;;;;;;;-1.701412E+38;-2.262441E-39;;;;;;;21.56;57.76074;966.8481;;;;
2020/06/21 03:39:15;;;;;;;-1.701412E+38;-2.262441E-39;;;;;;;21.54;57.75977;966.8261;;;;
2020/06/21 03:41:40;;;;;;;-1.701412E+38;-2.262441E-39;;;;;;;21.55;57.75977;966.8284;;;;
2020/06/21 03:44:06;;;;;;;-1.701412E+38;-2.262441E-39;;;;;;;21.51;57.90039;966.795;;;;
2020/06/21 03:46:30;;;;;;;-1.701412E+38;-2.262441E-39;;;;;;;21.54;57.80664;966.8067;;;;
2020/06/21 03:48:56;;;;;;;-1.701412E+38;-2.262441E-39;;;;;;;21.54;57.80664;966.8074;;;;
2020/06/21 03:51:21;;;;;;;-1.701412E+38;-2.262441E-39;;;;;;;21.51;57.59961;966.8208;;;;
2020/06/21 03:53:46;;;;;;;-1.701412E+38;-2.262441E-39;;;;;;;21.51;57.92285;966.8093;;;;
2020/06/21 03:56:11;;;;;;;-1.701412E+38;-2.262441E-39;;;;;;;21.53;57.8291;966.7952;;;;
2020/06/21 03:58:36;;;;;;;-1.701412E+38;-2.262441E-39;;;;;;;21.5;57.7666;966.8046;;;;
2020/06/21 04:02:27;;;;;;;-1.701412E+38;-2.262441E-39;;;;;;;21.51;57.85059;966.7466;;;;
2020/06/21 04:04:52;;;;;;;-1.701412E+38;-2.262441E-39;;;;;;;21.51;57.79004;966.7405;;;;
2020/06/21 04:07:19;;;;;;;-1.701412E+38;-2.262441E-39;;;;;;;21.51;57.92285;966.6785;;;;
2020/06/21 04:09:43;;;;;;;-1.701412E+38;-2.262441E-39;;;;;;;21.51;57.88672;966.7081;;;;
2020/06/21 04:12:08;;;;;;;-1.701412E+38;-2.262441E-39;;;;;;;21.48;57.85938;966.7189;;;;
2020/06/21 04:14:33;;;;;;;-1.701412E+38;-2.262441E-39;;;;;;;21.47;58.02539;966.7594;;;;
2020/06/21 04:16:58;;;;;;;-1.701412E+38;-2.262441E-39;;;;;;;21.48;57.94238;966.7573;;;;
2020/06/21 04:19:24;;;;;;;-1.701412E+38;-2.262441E-39;;;;;;;21.48;57.97754;966.7903;;;;
2020/06/21 04:21:49;;;;;;;-1.701412E+38;-2.262441E-39;;;;;;;21.49;58.01465;966.8481;;;;
2020/06/21 04:24:14;;;;;;;-1.701412E+38;-2.262441E-39;;;;;;;21.5;58.0293;966.8926;;;;
2020/06/21 04:26:39;;;;;;;-1.701412E+38;-2.262441E-39;;;;;;;21.51;58.00684;966.8943;;;;
2020/06/21 04:29:04;;;;;;;-1.701412E+38;-2.262441E-39;;;;;;;21.52;57.92383;966.8978;;;;
2020/06/21 04:31:30;;;;;;;-1.701412E+38;-2.262441E-39;;;;;;;21.49;58.09863;966.9453;;;;
2020/06/21 04:33:55;;;;;;;-1.701412E+38;-2.262441E-39;;;;;;;21.48;57.87012;966.9633;;;;
2020/06/21 04:36:20;;;;;;;-1.701412E+38;-2.262441E-39;;;;;;;21.5;57.99219;967.0107;;;;
2020/06/21 04:38:45;;;;;;;-1.701412E+38;-2.262441E-39;;;;;;;21.49;58.12207;966.9866;;;;
2020/06/21 04:41:11;;;;;;;-1.701412E+38;-2.262441E-39;;;;;;;21.48;58.03809;966.9694;;;;
2020/06/21 04:43:35;;;;;;;-1.701412E+38;-2.262441E-39;;;;;;;21.49;58.00391;967.035;;;;
2020/06/21 04:46:00;;;;;;;-1.701412E+38;-2.262441E-39;;;;;;;21.5;58.06543;966.9724;;;;
2020/06/21 04:48:26;;;;;;;-1.701412E+38;-2.262441E-39;;;;;;;21.5;58.06543;967.0377;;;;
2020/06/21 04:50:51;;;;;;;-1.701412E+38;-2.262441E-39;;;;;;;21.49;58.07422;967.0492;;;;
2020/06/21 04:53:16;;;;;;;-1.701412E+38;-2.262441E-39;;;;;;;21.5;58.08887;967.0581;;;;
2020/06/21 04:55:42;;;;;;;-1.701412E+38;-2.262441E-39;;;;;;;21.53;58.08008;967.0519;;;;
2020/06/21 04:58:07;;;;;;;-1.701412E+38;-2.262441E-39;;;;;;;21.53;58.10449;967.0924;;;;
2020/06/21 05:00:32;;;;;;;-1.701412E+38;-2.262441E-39;;;;;;;21.51;57.87598;967.0919;;;;
2020/06/21 05:02:57;;;;;;;-1.701412E+38;-2.262441E-39;;;;;;;21.51;57.87402;967.052;;;;
2020/06/21 05:05:22;;;;;;;-1.701412E+38;-2.262441E-39;;;;;;;21.49;58.09961;967.0609;;;;
2020/06/21 05:07:47;;;;;;;-1.701412E+38;-2.262441E-39;;;;;;;21.52;58.0791;967.0617;;;;
2020/06/21 05:10:13;;;;;;;-1.701412E+38;-2.262441E-39;;;;;;;21.5;58.14746;967.0978;;;;
2020/06/21 05:12:40;;;;;;;-1.701412E+38;-2.262441E-39;;;;;;;21.5;58.25586;967.1136;;;;
2020/06/21 05:15:03;;;;;;;-1.701412E+38;-2.262441E-39;;;;;;;21.51;58.15039;967.139;;;;
2020/06/21 05:17:28;;;;;;;-1.701412E+38;-2.262441E-39;;;;;;;21.49;58.13574;967.1301;;;;
2020/06/21 05:19:54;;;;;;;-1.701412E+38;-2.262441E-39;;;;;;;21.51;58.09082;967.1594;;;;
2020/06/21 05:22:19;;;;;;;-1.701412E+38;-2.262441E-39;;;;;;;21.53;58.05664;967.2202;;;;
2020/06/21 05:24:44;;;;;;;-1.701412E+38;-2.262441E-39;;;;;;;21.54;58.06934;967.2436;;;;
2020/06/21 05:27:09;;;;;;;-1.701412E+38;-2.262441E-39;;;;;;;21.55;57.99902;967.2291;;;;
2020/06/21 05:29:34;;;;;;;-1.701412E+38;-2.262441E-39;;;;;;;21.54;58.03418;967.2459;;;;
2020/06/21 05:31:59;;;;;;;-1.701412E+38;-2.262441E-39;;;;;;;21.56;58.04785;967.2649;;;;
2020/06/21 05:34:24;;;;;;;-1.701412E+38;-2.262441E-39;;;;;;;21.57;58.0625;967.2825;;;;
2020/06/21 05:36:49;;;;;;;-1.701412E+38;-2.262441E-39;;;;;;;21.58;58.16992;967.2914;;;;
2020/06/21 05:39:14;;;;;;;-1.701412E+38;-2.262441E-39;;;;;;;21.58;58.1582;967.3145;;;;
2020/06/21 05:41:39;;;;;;;-1.701412E+38;-2.262441E-39;;;;;;;21.58;57.9082;967.3323;;;;
2020/06/21 05:44:04;;;;;;;-1.701412E+38;-2.262441E-39;;;;;;;21.6;57.8623;967.361;;;;
2020/06/21 05:46:30;;;;;;;-1.701412E+38;-2.262441E-39;;;;;;;21.59;57.98145;967.3585;;;;
2020/06/21 05:48:55;;;;;;;-1.701412E+38;-2.262441E-39;;;;;;;21.6;57.99414;967.3806;;;;
2020/06/21 05:51:20;;;;;;;-1.701412E+38;-2.262441E-39;;;;;;;21.63;58.46387;967.4006;;;;
2020/06/21 05:53:45;;;;;;;-1.701412E+38;-2.262441E-39;;;;;;;21.62;58.60742;967.3769;;;;
2020/06/21 05:56:10;;;;;;;-1.701412E+38;-2.262441E-39;;;;;;;21.64;58.22754;967.3933;;;;
2020/06/21 05:58:35;;;;;;;-1.701412E+38;-2.262441E-39;;;;;;;21.64;58.11914;967.3894;;;;
2020/06/21 06:01:01;;;;;;;-1.701412E+38;-2.262441E-39;;;;;;;21.62;58.23535;967.4021;;;;
2020/06/21 06:03:25;;;;;;;-1.701412E+38;-2.262441E-39;;;;;;;21.66;58.25195;967.4147;;;;
2020/06/21 06:05:50;;;;;;;-1.701412E+38;-2.262441E-39;;;;;;;21.68;58.32715;967.4727;;;;
2020/06/21 06:08:15;;;;;;;-1.701412E+38;-2.262441E-39;;;;;;;21.71;58.24707;967.4601;;;;
2020/06/21 06:10:41;;;;;;;-1.701412E+38;-2.262441E-39;;;;;;;21.79;58.71191;967.5112;;;;
2020/06/21 06:13:06;;;;;;;-1.701412E+38;-2.262441E-39;;;;;;;21.81;58.82324;967.551;;;;
2020/06/21 06:15:31;;;;;;;-1.701412E+38;-2.262441E-39;;;;;;;21.82;59.24316;967.5396;;;;
2020/06/21 06:17:56;;;;;;;-1.701412E+38;-2.262441E-39;;;;;;;21.82;59.21777;967.5654;;;;
2020/06/21 06:20:21;;;;;;;-1.701412E+38;-2.262441E-39;;;;;;;21.83;59.43555;967.573;;;;
2020/06/21 06:22:46;;;;;;;-1.701412E+38;-2.262441E-39;;;;;;;21.84;58.44531;967.5991;;;;
2020/06/21 06:25:12;;;;;;;-1.701412E+38;-2.262441E-39;;;;;;;21.86;59.34473;967.6944;;;;
2020/06/21 06:27:36;;;;;;;-1.701412E+38;-2.262441E-39;;;;;;;21.88;58.95117;967.6828;;;;
2020/06/21 06:30:01;;;;;;;-1.701412E+38;-2.262441E-39;;;;;;;21.88;59.06055;967.6497;;;;
2020/06/21 06:32:27;;;;;;;-1.701412E+38;-2.262441E-39;;;;;;;21.89;59.14551;967.632;;;;
2020/06/21 06:34:52;;;;;;;-1.701412E+38;-2.262441E-39;;;;;;;21.9;58.73926;967.673;;;;
2020/06/21 06:37:17;;;;;;;-1.701412E+38;-2.262441E-39;;;;;;;21.91;59.02734;967.6589;;;;
2020/06/21 06:39:42;;;;;;;-1.701412E+38;-2.262441E-39;;;;;;;21.93;58.65918;967.5946;;;;
2020/06/21 06:42:07;;;;;;;-1.701412E+38;-2.262441E-39;;;;;;;21.93;58.63477;967.6337;;;;
2020/06/21 06:44:32;;;;;;;-1.701412E+38;-2.262441E-39;;;;;;;21.96;58.56738;967.6229;;;;
2020/06/21 06:46:57;;;;;;;-1.701412E+38;-2.262441E-39;;;;;;;21.97;58.30566;967.676;;;;
2020/06/21 06:49:22;;;;;;;-1.701412E+38;-2.262441E-39;;;;;;;21.97;58.19824;967.668;;;;
2020/06/21 06:51:47;;;;;;;-1.701412E+38;-2.262441E-39;;;;;;;21.98;58.70215;967.7313;;;;
2020/06/21 06:54:12;;;;;;;-1.701412E+38;-2.262441E-39;;;;;;;22;59.09961;967.7064;;;;
2020/06/21 06:56:38;;;;;;;-1.701412E+38;-2.262441E-39;;;;;;;22.02;59.20898;967.701;;;;
2020/06/21 06:59:03;;;;;;;-1.701412E+38;-2.262441E-39;;;;;;;22.88;56.75781;967.7498;;;;
2020/06/21 07:01:28;;;;;;;-1.701412E+38;-2.262441E-39;;;;;;;23.91;56.64844;967.8281;;;;
2020/06/21 07:03:53;;;;;;;-1.701412E+38;-2.262441E-39;;;;;;;23.77;55.30957;967.8412;;;;
2020/06/21 07:11:39;;;;;;;-1.701412E+38;-2.262441E-39;;;;;;;23.52;53.26074;967.9314;;;;
2020/06/21 07:14:04;;;;;;;-1.701412E+38;-2.262441E-39;;;;;;;23.74;52.4707;967.9415;;;;
2020/06/21 07:16:29;;;;;;;-1.701412E+38;-2.262441E-39;;;;;;;23.66;53.32617;967.9651;;;;
2020/06/21 07:18:54;;;;;;;-1.701412E+38;-2.262441E-39;;;;;;;23.93;55.31738;967.9833;;;;
2020/06/21 07:21:19;;;;;;;-1.701412E+38;-2.262441E-39;;;;;;;23.61;54.72559;967.9653;;;;
2020/06/21 07:23:44;;;;;;;-1.701412E+38;-2.262441E-39;;;;;;;23.43;54.82324;967.9747;;;;
2020/06/21 07:26:09;;;;;;;-1.701412E+38;-2.262441E-39;;;;;;;23.4;54.13477;967.9489;;;;
2020/06/21 07:28:34;;;;;;;-1.701412E+38;-2.262441E-39;;;;;;;23.36;52.50977;967.9312;;;;
2020/06/21 07:31:00;;;;;;;-1.701412E+38;-2.262441E-39;;;;;;;23.24;52.65234;967.933;;;;
2020/06/21 07:33:26;;;;;;;-1.701412E+38;-2.262441E-39;;;;;;;23.21;53.24805;967.9989;;;;
2020/06/21 07:35:50;;;;;;;-1.701412E+38;-2.262441E-39;;;;;;;23.14;53.30078;967.9633;;;;
2020/06/21 07:38:16;;;;;;;-1.701412E+38;-2.262441E-39;;;;;;;23.15;53.44434;967.9849;;;;
2020/06/21 07:40:41;;;;;;;-1.701412E+38;-2.262441E-39;;;;;;;23.15;53.32422;968.0262;;;;
2020/06/21 07:43:06;;;;;;;-1.701412E+38;-2.262441E-39;;;;;;;23.13;54.11328;967.981;;;;
2020/06/21 07:45:31;;;;;;;-1.701412E+38;-2.262441E-39;;;;;;;23.1;54.35156;967.9903;;;;
2020/06/21 07:47:56;;;;;;;-1.701412E+38;-2.262441E-39;;;;;;;23.09;53.96484;967.9417;;;;
2020/06/21 07:50:23;;;;;;;-1.701412E+38;-2.262441E-39;;;;;;;23.05;53.39746;967.9579;;;;
2020/06/21 07:52:47;;;;;;;-1.701412E+38;-2.262441E-39;;;;;;;22.97;52.85938;967.9073;;;;
2020/06/21 07:55:12;;;;;;;-1.701412E+38;-2.262441E-39;;;;;;;22.96;52.95313;967.8692;;;;
2020/06/21 07:57:37;;;;;;;-1.701412E+38;-2.262441E-39;;;;;;;22.97;53.90332;967.8732;;;;
2020/06/21 08:00:02;;;;;;;-1.701412E+38;-2.262441E-39;;;;;;;23;53.95508;967.8575;;;;
2020/06/21 08:02:27;;;;;;;-1.701412E+38;-2.262441E-39;;;;;;;23.03;54.31836;967.8284;;;;
2020/06/21 08:04:52;;;;;;;-1.701412E+38;-2.262441E-39;;;;;;;23.05;54.22363;967.7958;;;;
2020/06/21 08:07:19;;;;;;;-1.701412E+38;-2.262441E-39;;;;;;;23.07;54.4541;967.7328;;;;
2020/06/21 08:09:43;;;;;;;-1.701412E+38;-2.262441E-39;;;;;;;23.07;53.91406;967.7029;;;;
2020/06/21 08:12:08;;;;;;;-1.701412E+38;-2.262441E-39;;;;;;;23.12;55.45703;967.6899;;;;
2020/06/21 08:14:33;;;;;;;-1.701412E+38;-2.262441E-39;;;;;;;23.11;54.89258;967.6997;;;;
2020/06/21 08:16:58;;;;;;;-1.701412E+38;-2.262441E-39;;;;;;;23.1;54.31445;967.7048;;;;
2020/06/21 08:19:23;;;;;;;-1.701412E+38;-2.262441E-39;;;;;;;23.08;53.64063;967.6841;;;;
2020/06/21 08:21:48;;;;;;;-1.701412E+38;-2.262441E-39;;;;;;;22.96;53.30176;967.7122;;;;
2020/06/21 08:24:13;;;;;;;-1.701412E+38;-2.262441E-39;;;;;;;22.89;52.59863;967.6757;;;;
2020/06/21 08:26:38;;;;;;;-1.701412E+38;-2.262441E-39;;;;;;;22.82;52.27832;967.6879;;;;
2020/06/21 08:29:03;;;;;;;-1.701412E+38;-2.262441E-39;;;;;;;22.73;52.09863;967.6813;;;;
2020/06/21 08:31:28;;;;;;;-1.701412E+38;-2.262441E-39;;;;;;;22.72;52.31348;967.663;;;;
2020/06/21 08:33:53;;;;;;;-1.701412E+38;-2.262441E-39;;;;;;;22.67;52.57227;967.7332;;;;
2020/06/21 08:36:19;;;;;;;-1.701412E+38;-2.262441E-39;;;;;;;22.71;52.25391;967.6906;;;;
2020/06/21 08:38:44;;;;;;;-1.701412E+38;-2.262441E-39;;;;;;;22.64;51.84961;967.7523;;;;
2020/06/21 08:41:09;;;;;;;-1.701412E+38;-2.262441E-39;;;;;;;23.17;50.33887;967.7319;;;;
2020/06/21 08:43:34;;;;;;;-1.701412E+38;-2.262441E-39;;;;;;;23.04;50.79297;967.6861;;;;
2020/06/21 08:45:59;;;;;;;-1.701412E+38;-2.262441E-39;;;;;;;23.2;50.2832;967.7018;;;;
2020/06/21 08:48:24;;;;;;;-1.701412E+38;-2.262441E-39;;;;;;;23.11;49.8877;967.682;;;;
2020/06/21 08:50:49;;;;;;;-1.701412E+38;-2.262441E-39;;;;;;;23.09;50.10156;967.6953;;;;
2020/06/21 08:53:15;;;;;;;-1.701412E+38;-2.262441E-39;;;;;;;23.16;50.06152;967.6147;;;;
2020/06/21 08:55:40;;;;;;;-1.701412E+38;-2.262441E-39;;;;;;;22.92;51.05469;967.6465;;;;
2020/06/21 08:58:05;;;;;;;-1.701412E+38;-2.262441E-39;;;;;;;22.86;50.97559;967.6529;;;;
2020/06/21 09:00:30;;;;;;;-1.701412E+38;-2.262441E-39;;;;;;;22.94;51.32031;967.6433;;;;
2020/06/21 09:02:55;;;;;;;-1.701412E+38;-2.262441E-39;;;;;;;22.9;50.62109;967.6469;;;;
2020/06/21 09:05:20;;;;;;;-1.701412E+38;-2.262441E-39;;;;;;;22.79;50.75293;967.6431;;;;
2020/06/21 09:07:46;;;;;;;-1.701412E+38;-2.262441E-39;;;;;;;22.78;50.35449;967.6181;;;;
2020/06/21 09:10:10;;;;;;;-1.701412E+38;-2.262441E-39;;;;;;;22.83;50.67285;967.6308;;;;
2020/06/21 09:12:35;;;;;;;-1.701412E+38;-2.262441E-39;;;;;;;22.87;50.68848;967.6285;;;;
2020/06/21 09:15:00;;;;;;;-1.701412E+38;-2.262441E-39;;;;;;;22.86;50.72363;967.6667;;;;
2020/06/21 09:17:25;;;;;;;-1.701412E+38;-2.262441E-39;;;;;;;22.8;50.18848;967.6113;;;;
2020/06/21 09:19:51;;;;;;;-1.701412E+38;-2.262441E-39;;;;;;;22.76;50.03027;967.633;;;;
2020/06/21 09:22:15;;;;;;;-1.701412E+38;-2.262441E-39;;;;;;;22.85;51.47754;967.6307;;;;
2020/06/21 09:24:41;;;;;;;-1.701412E+38;-2.262441E-39;;;;;;;22.88;51.88867;967.6061;;;;
2020/06/21 09:27:06;;;;;;;-1.701412E+38;-2.262441E-39;;;;;;;22.89;51.95117;967.663;;;;
2020/06/21 09:29:31;;;;;;;-1.701412E+38;-2.262441E-39;;;;;;;22.96;51.59863;967.6213;;;;
2020/06/21 09:31:56;;;;;;;-1.701412E+38;-2.262441E-39;;;;;;;22.93;50.85156;967.5656;;;;
2020/06/21 09:34:21;;;;;;;-1.701412E+38;-2.262441E-39;;;;;;;23.2;51.35059;967.5045;;;;
2020/06/21 09:36:46;;;;;;;-1.701412E+38;-2.262441E-39;;;;;;;23.39;50.94043;967.5154;;;;
2020/06/21 09:39:11;;;;;;;-1.701412E+38;-2.262441E-39;;;;;;;23.48;50.43359;967.5422;;;;
2020/06/21 09:41:36;;;;;;;-1.701412E+38;-2.262441E-39;;;;;;;23.5;49.76367;967.5516;;;;
2020/06/21 09:44:01;;;;;;;-1.701412E+38;-2.262441E-39;;;;;;;23.48;50.18164;967.5681;;;;
2020/06/21 09:46:27;;;;;;;-1.701412E+38;-2.262441E-39;;;;;;;23.46;47.9707;967.5591;;;;
2020/06/21 09:48:52;;;;;;;-1.701412E+38;-2.262441E-39;;;;;;;23.42;49.47949;967.5597;;;;
2020/06/21 09:51:17;;;;;;;-1.701412E+38;-2.262441E-39;;;;;;;23.51;49.34473;967.5417;;;;
2020/06/21 09:53:42;;;;;;;-1.701412E+38;-2.262441E-39;;;;;;;23.52;49.74219;967.5137;;;;
2020/06/21 09:56:11;;;;;;;-1.701412E+38;-2.262441E-39;;;;;;;23.53;49.59961;967.5059;;;;
2020/06/21 09:58:35;;;;;;;-1.701412E+38;-2.262441E-39;;;;;;;23.62;52.73242;967.506;;;;
2020/06/21 10:01:00;;;;;;;-1.701412E+38;-2.262441E-39;;;;;;;23.65;53.96094;967.5078;;;;
2020/06/21 10:03:25;;;;;;;-1.701412E+38;-2.262441E-39;;;;;;;23.71;56.4082;967.5024;;;;
2020/06/21 10:05:50;;;;;;;-1.701412E+38;-2.262441E-39;;;;;;;23.7;58.26953;967.5073;;;;
2020/06/21 10:08:15;;;;;;;-1.701412E+38;-2.262441E-39;;;;;;;23.72;54.66602;967.4992;;;;
2020/06/21 10:10:40;;;;;;;-1.701412E+38;-2.262441E-39;;;;;;;23.77;55.85156;967.5213;;;;
2020/06/21 10:13:05;;;;;;;-1.701412E+38;-2.262441E-39;;;;;;;23.76;55.18848;967.5162;;;;
2020/06/21 10:15:31;;;;;;;-1.701412E+38;-2.262441E-39;;;;;;;23.79;56.81445;967.5267;;;;
2020/06/21 10:17:56;;;;;;;-1.701412E+38;-2.262441E-39;;;;;;;23.86;61.72754;967.5153;;;;
2020/06/21 10:20:21;;;;;;;-1.701412E+38;-2.262441E-39;;;;;;;23.87;59.25293;967.5028;;;;
2020/06/21 10:22:46;;;;;;;-1.701412E+38;-2.262441E-39;;;;;;;23.85;56.87012;967.5179;;;;
2020/06/21 10:25:11;;;;;;;-1.701412E+38;-2.262441E-39;;;;;;;23.82;55.41211;967.486;;;;
2020/06/21 10:27:36;;;;;;;-1.701412E+38;-2.262441E-39;;;;;;;23.85;55.11523;967.4916;;;;
2020/06/21 10:30:01;;;;;;;-1.701412E+38;-2.262441E-39;;;;;;;23.85;54.10547;967.5378;;;;
2020/06/21 10:32:26;;;;;;;-1.701412E+38;-2.262441E-39;;;;;;;23.83;53.50195;967.5027;;;;
2020/06/21 10:34:51;;;;;;;-1.701412E+38;-2.262441E-39;;;;;;;23.85;52.95215;967.4975;;;;
2020/06/21 10:37:16;;;;;;;-1.701412E+38;-2.262441E-39;;;;;;;23.87;51.10352;967.5144;;;;
2020/06/21 10:39:41;;;;;;;-1.701412E+38;-2.262441E-39;;;;;;;23.88;50.73242;967.4849;;;;
2020/06/21 10:42:06;;;;;;;-1.701412E+38;-2.262441E-39;;;;;;;23.86;51.30762;967.4481;;;;
2020/06/21 10:44:32;;;;;;;-1.701412E+38;-2.262441E-39;;;;;;;23.88;50.27441;967.406;;;;
2020/06/21 10:46:56;;;;;;;-1.701412E+38;-2.262441E-39;;;;;;;23.89;50.67383;967.4316;;;;
2020/06/21 10:49:23;;;;;;;-1.701412E+38;-2.262441E-39;;;;;;;23.91;50.42383;967.4061;;;;
2020/06/21 10:51:48;;;;;;;-1.701412E+38;-2.262441E-39;;;;;;;23.92;50.41211;967.4205;;;;
2020/06/21 10:54:13;;;;;;;-1.701412E+38;-2.262441E-39;;;;;;;23.93;50.34082;967.3787;;;;
2020/06/21 10:56:38;;;;;;;-1.701412E+38;-2.262441E-39;;;;;;;23.97;50.08203;967.2704;;;;
2020/06/21 10:59:03;;;;;;;-1.701412E+38;-2.262441E-39;;;;;;;23.98;49.99805;967.2831;;;;
2020/06/21 11:01:28;;;;;;;-1.701412E+38;-2.262441E-39;;;;;;;23.97;49.63574;967.2488;;;;